sensor_id;sensor_type;location;lat;lon;timestamp;P1;durP1;ratioP1;P2;durP2;ratioP2
21754;SDS011;11039;50.028;19.938;2023-07-13T00:01:19;7.60;;;6.75;;
21754;SDS011;11039;50.028;19.938;2023-07-13T00:03:45;7.05;;;6.35;;
21754;SDS011;11039;50.028;19.938;2023-07-13T00:06:12;9.43;;;6.80;;
21754;SDS011;11039;50.028;19.938;2023-07-13T00:08:38;8.02;;;6.90;;
21754;SDS011;11039;50.028;19.938;2023-07-13T00:11:04;8.38;;;7.05;;
21754;SDS011;11039;50.028;19.938;2023-07-13T00:13:31;8.27;;;6.75;;
21754;SDS011;11039;50.028;19.938;2023-07-13T00:15:57;7.90;;;6.60;;
21754;SDS011;11039;50.028;19.938;2023-07-13T00:18:24;8.00;;;6.60;;
21754;SDS011;11039;50.028;19.938;2023-07-13T00:20:50;6.90;;;6.20;;
21754;SDS011;11039;50.028;19.938;2023-07-13T00:23:16;7.53;;;6.60;;
21754;SDS011;11039;50.028;19.938;2023-07-13T00:25:42;9.07;;;6.85;;
21754;SDS011;11039;50.028;19.938;2023-07-13T00:28:08;7.78;;;6.35;;
21754;SDS011;11039;50.028;19.938;2023-07-13T00:30:34;7.00;;;6.35;;
21754;SDS011;11039;50.028;19.938;2023-07-13T00:33:00;8.07;;;6.45;;
21754;SDS011;11039;50.028;19.938;2023-07-13T00:35:26;7.20;;;6.50;;
21754;SDS011;11039;50.028;19.938;2023-07-13T00:37:52;7.22;;;6.13;;
21754;SDS011;11039;50.028;19.938;2023-07-13T00:40:18;9.10;;;6.57;;
21754;SDS011;11039;50.028;19.938;2023-07-13T00:42:44;7.88;;;6.85;;
21754;SDS011;11039;50.028;19.938;2023-07-13T00:47:36;11.18;;;6.65;;
21754;SDS011;11039;50.028;19.938;2023-07-13T00:50:03;7.53;;;6.03;;
21754;SDS011;11039;50.028;19.938;2023-07-13T00:52:31;8.52;;;6.43;;
21754;SDS011;11039;50.028;19.938;2023-07-13T00:54:57;7.00;;;6.20;;
21754;SDS011;11039;50.028;19.938;2023-07-13T00:57:23;8.70;;;6.63;;
21754;SDS011;11039;50.028;19.938;2023-07-13T00:59:52;8.02;;;6.28;;
21754;SDS011;11039;50.028;19.938;2023-07-13T01:02:20;8.48;;;6.30;;
21754;SDS011;11039;50.028;19.938;2023-07-13T01:04:46;7.10;;;6.38;;
21754;SDS011;11039;50.028;19.938;2023-07-13T01:07:13;7.13;;;6.22;;
21754;SDS011;11039;50.028;19.938;2023-07-13T01:09:39;7.55;;;6.47;;
21754;SDS011;11039;50.028;19.938;2023-07-13T01:12:05;7.55;;;6.18;;
21754;SDS011;11039;50.028;19.938;2023-07-13T01:14:32;7.13;;;6.40;;
21754;SDS011;11039;50.028;19.938;2023-07-13T01:21:38;8.73;;;6.93;;
21754;SDS011;11039;50.028;19.938;2023-07-13T01:24:08;8.20;;;6.68;;
21754;SDS011;11039;50.028;19.938;2023-07-13T01:26:34;8.90;;;6.93;;
21754;SDS011;11039;50.028;19.938;2023-07-13T01:29:00;7.57;;;6.68;;
21754;SDS011;11039;50.028;19.938;2023-07-13T01:31:26;7.53;;;6.60;;
21754;SDS011;11039;50.028;19.938;2023-07-13T01:33:52;7.13;;;6.40;;
21754;SDS011;11039;50.028;19.938;2023-07-13T01:36:19;9.27;;;6.80;;
21754;SDS011;11039;50.028;19.938;2023-07-13T01:38:46;8.30;;;6.43;;
21754;SDS011;11039;50.028;19.938;2023-07-13T01:41:12;7.18;;;5.85;;
21754;SDS011;11039;50.028;19.938;2023-07-13T01:43:38;7.93;;;6.35;;
21754;SDS011;11039;50.028;19.938;2023-07-13T01:46:04;8.98;;;6.25;;
21754;SDS011;11039;50.028;19.938;2023-07-13T01:48:30;7.15;;;5.75;;
21754;SDS011;11039;50.028;19.938;2023-07-13T01:50:56;7.72;;;6.30;;
21754;SDS011;11039;50.028;19.938;2023-07-13T01:53:22;7.95;;;5.90;;
21754;SDS011;11039;50.028;19.938;2023-07-13T01:55:48;6.22;;;5.47;;
21754;SDS011;11039;50.028;19.938;2023-07-13T01:58:14;6.85;;;6.20;;
21754;SDS011;11039;50.028;19.938;2023-07-13T02:00:40;7.70;;;6.38;;
21754;SDS011;11039;50.028;19.938;2023-07-13T02:03:06;7.00;;;6.28;;
21754;SDS011;11039;50.028;19.938;2023-07-13T02:05:32;7.15;;;6.22;;
21754;SDS011;11039;50.028;19.938;2023-07-13T02:07:58;8.40;;;6.47;;
21754;SDS011;11039;50.028;19.938;2023-07-13T02:10:24;7.47;;;6.05;;
21754;SDS011;11039;50.028;19.938;2023-07-13T02:12:50;7.05;;;5.95;;
21754;SDS011;11039;50.028;19.938;2023-07-13T02:15:17;7.13;;;5.90;;
21754;SDS011;11039;50.028;19.938;2023-07-13T02:17:43;6.20;;;5.43;;
21754;SDS011;11039;50.028;19.938;2023-07-13T02:20:09;6.82;;;6.13;;
21754;SDS011;11039;50.028;19.938;2023-07-13T02:22:35;7.60;;;6.07;;
21754;SDS011;11039;50.028;19.938;2023-07-13T02:25:01;7.82;;;6.00;;
21754;SDS011;11039;50.028;19.938;2023-07-13T02:27:27;6.65;;;5.80;;
21754;SDS011;11039;50.028;19.938;2023-07-13T02:29:53;7.70;;;6.18;;
21754;SDS011;11039;50.028;19.938;2023-07-13T02:32:19;6.72;;;5.63;;
21754;SDS011;11039;50.028;19.938;2023-07-13T02:34:45;7.40;;;5.72;;
21754;SDS011;11039;50.028;19.938;2023-07-13T02:37:11;7.70;;;5.90;;
21754;SDS011;11039;50.028;19.938;2023-07-13T02:39:37;8.73;;;5.75;;
21754;SDS011;11039;50.028;19.938;2023-07-13T02:42:03;6.68;;;5.55;;
21754;SDS011;11039;50.028;19.938;2023-07-13T02:44:30;9.15;;;6.63;;
21754;SDS011;11039;50.028;19.938;2023-07-13T02:46:56;7.30;;;5.78;;
21754;SDS011;11039;50.028;19.938;2023-07-13T02:49:22;6.20;;;5.30;;
21754;SDS011;11039;50.028;19.938;2023-07-13T02:51:48;5.90;;;5.28;;
21754;SDS011;11039;50.028;19.938;2023-07-13T02:54:14;6.03;;;5.45;;
21754;SDS011;11039;50.028;19.938;2023-07-13T02:56:40;6.65;;;5.28;;
21754;SDS011;11039;50.028;19.938;2023-07-13T02:59:08;6.15;;;5.55;;
21754;SDS011;11039;50.028;19.938;2023-07-13T03:01:34;6.85;;;5.35;;
21754;SDS011;11039;50.028;19.938;2023-07-13T03:04:00;8.50;;;5.50;;
21754;SDS011;11039;50.028;19.938;2023-07-13T03:06:26;6.18;;;5.15;;
21754;SDS011;11039;50.028;19.938;2023-07-13T03:08:55;6.68;;;5.68;;
21754;SDS011;11039;50.028;19.938;2023-07-13T03:11:21;6.35;;;5.00;;
21754;SDS011;11039;50.028;19.938;2023-07-13T03:13:48;6.68;;;5.32;;
21754;SDS011;11039;50.028;19.938;2023-07-13T03:16:14;7.45;;;5.45;;
21754;SDS011;11039;50.028;19.938;2023-07-13T03:18:41;7.25;;;5.30;;
21754;SDS011;11039;50.028;19.938;2023-07-13T03:21:07;6.47;;;5.43;;
21754;SDS011;11039;50.028;19.938;2023-07-13T03:23:33;6.22;;;5.63;;
21754;SDS011;11039;50.028;19.938;2023-07-13T03:26:08;6.00;;;5.40;;
21754;SDS011;11039;50.028;19.938;2023-07-13T03:28:34;5.97;;;4.97;;
21754;SDS011;11039;50.028;19.938;2023-07-13T03:31:11;6.95;;;5.35;;
21754;SDS011;11039;50.028;19.938;2023-07-13T03:33:38;5.93;;;5.32;;
21754;SDS011;11039;50.028;19.938;2023-07-13T03:36:04;5.43;;;4.90;;
21754;SDS011;11039;50.028;19.938;2023-07-13T03:38:31;6.00;;;5.40;;
21754;SDS011;11039;50.028;19.938;2023-07-13T03:40:57;6.43;;;5.18;;
21754;SDS011;11039;50.028;19.938;2023-07-13T03:43:23;6.28;;;4.53;;
21754;SDS011;11039;50.028;19.938;2023-07-13T03:45:49;7.25;;;5.30;;
21754;SDS011;11039;50.028;19.938;2023-07-13T03:48:15;5.65;;;5.05;;
21754;SDS011;11039;50.028;19.938;2023-07-13T03:50:41;6.00;;;5.10;;
21754;SDS011;11039;50.028;19.938;2023-07-13T03:53:07;5.43;;;4.93;;
21754;SDS011;11039;50.028;19.938;2023-07-13T03:55:33;6.28;;;5.03;;
21754;SDS011;11039;50.028;19.938;2023-07-13T04:00:17;5.95;;;4.93;;
21754;SDS011;11039;50.028;19.938;2023-07-13T04:02:44;7.65;;;5.45;;
21754;SDS011;11039;50.028;19.938;2023-07-13T04:05:11;5.70;;;4.90;;
21754;SDS011;11039;50.028;19.938;2023-07-13T04:07:37;7.53;;;5.32;;
21754;SDS011;11039;50.028;19.938;2023-07-13T04:10:04;6.03;;;5.25;;
21754;SDS011;11039;50.028;19.938;2023-07-13T04:12:30;6.45;;;5.75;;
21754;SDS011;11039;50.028;19.938;2023-07-13T04:14:56;6.90;;;5.20;;
21754;SDS011;11039;50.028;19.938;2023-07-13T04:17:22;5.63;;;4.82;;
21754;SDS011;11039;50.028;19.938;2023-07-13T04:19:48;6.38;;;5.30;;
21754;SDS011;11039;50.028;19.938;2023-07-13T04:22:14;6.63;;;5.28;;
21754;SDS011;11039;50.028;19.938;2023-07-13T04:24:40;6.18;;;5.40;;
21754;SDS011;11039;50.028;19.938;2023-07-13T04:27:06;5.88;;;5.28;;
21754;SDS011;11039;50.028;19.938;2023-07-13T04:29:32;6.25;;;5.10;;
21754;SDS011;11039;50.028;19.938;2023-07-13T04:31:58;6.07;;;5.47;;
21754;SDS011;11039;50.028;19.938;2023-07-13T04:34:24;5.80;;;5.18;;
21754;SDS011;11039;50.028;19.938;2023-07-13T04:36:51;7.40;;;5.15;;
21754;SDS011;11039;50.028;19.938;2023-07-13T04:39:17;7.55;;;5.13;;
21754;SDS011;11039;50.028;19.938;2023-07-13T04:41:43;6.53;;;5.15;;
21754;SDS011;11039;50.028;19.938;2023-07-13T04:44:09;7.43;;;5.30;;
21754;SDS011;11039;50.028;19.938;2023-07-13T04:46:35;5.88;;;5.35;;
21754;SDS011;11039;50.028;19.938;2023-07-13T04:49:03;5.90;;;5.18;;
21754;SDS011;11039;50.028;19.938;2023-07-13T04:51:29;6.13;;;5.05;;
21754;SDS011;11039;50.028;19.938;2023-07-13T04:53:55;5.70;;;5.00;;
21754;SDS011;11039;50.028;19.938;2023-07-13T04:56:21;7.18;;;5.53;;
21754;SDS011;11039;50.028;19.938;2023-07-13T04:58:48;6.53;;;5.10;;
21754;SDS011;11039;50.028;19.938;2023-07-13T05:03:33;5.68;;;4.85;;
21754;SDS011;11039;50.028;19.938;2023-07-13T05:06:03;5.10;;;4.60;;
21754;SDS011;11039;50.028;19.938;2023-07-13T05:10:47;5.30;;;4.53;;
21754;SDS011;11039;50.028;19.938;2023-07-13T05:13:13;6.10;;;5.10;;
21754;SDS011;11039;50.028;19.938;2023-07-13T05:15:39;5.40;;;4.80;;
21754;SDS011;11039;50.028;19.938;2023-07-13T05:18:05;6.30;;;4.90;;
21754;SDS011;11039;50.028;19.938;2023-07-13T05:20:31;5.82;;;4.93;;
21754;SDS011;11039;50.028;19.938;2023-07-13T05:22:57;5.75;;;4.95;;
21754;SDS011;11039;50.028;19.938;2023-07-13T05:25:23;6.63;;;4.80;;
21754;SDS011;11039;50.028;19.938;2023-07-13T05:27:50;7.70;;;5.85;;
21754;SDS011;11039;50.028;19.938;2023-07-13T05:30:16;5.32;;;4.82;;
21754;SDS011;11039;50.028;19.938;2023-07-13T05:35:00;5.53;;;5.00;;
21754;SDS011;11039;50.028;19.938;2023-07-13T05:39:47;6.97;;;4.85;;
21754;SDS011;11039;50.028;19.938;2023-07-13T05:42:13;4.93;;;4.43;;
21754;SDS011;11039;50.028;19.938;2023-07-13T05:44:39;5.53;;;4.97;;
21754;SDS011;11039;50.028;19.938;2023-07-13T05:47:05;5.10;;;4.60;;
21754;SDS011;11039;50.028;19.938;2023-07-13T05:49:31;7.82;;;4.85;;
21754;SDS011;11039;50.028;19.938;2023-07-13T05:51:57;5.45;;;4.72;;
21754;SDS011;11039;50.028;19.938;2023-07-13T05:54:23;5.28;;;4.45;;
21754;SDS011;11039;50.028;19.938;2023-07-13T05:56:49;6.47;;;4.68;;
21754;SDS011;11039;50.028;19.938;2023-07-13T05:59:15;7.13;;;5.00;;
21754;SDS011;11039;50.028;19.938;2023-07-13T06:01:43;6.18;;;4.47;;
21754;SDS011;11039;50.028;19.938;2023-07-13T06:04:09;6.28;;;5.10;;
21754;SDS011;11039;50.028;19.938;2023-07-13T06:06:35;6.07;;;5.25;;
21754;SDS011;11039;50.028;19.938;2023-07-13T06:09:01;5.53;;;4.78;;
21754;SDS011;11039;50.028;19.938;2023-07-13T06:11:27;5.50;;;4.90;;
21754;SDS011;11039;50.028;19.938;2023-07-13T06:13:54;7.60;;;5.85;;
21754;SDS011;11039;50.028;19.938;2023-07-13T06:16:21;7.68;;;5.50;;
21754;SDS011;11039;50.028;19.938;2023-07-13T06:18:47;5.18;;;4.60;;
21754;SDS011;11039;50.028;19.938;2023-07-13T06:21:14;7.30;;;4.90;;
21754;SDS011;11039;50.028;19.938;2023-07-13T06:23:41;6.78;;;4.80;;
21754;SDS011;11039;50.028;19.938;2023-07-13T06:26:07;6.60;;;4.78;;
21754;SDS011;11039;50.028;19.938;2023-07-13T06:28:34;5.93;;;5.00;;
21754;SDS011;11039;50.028;19.938;2023-07-13T06:31:00;7.70;;;5.10;;
21754;SDS011;11039;50.028;19.938;2023-07-13T06:33:27;7.45;;;5.05;;
21754;SDS011;11039;50.028;19.938;2023-07-13T06:35:53;5.47;;;4.90;;
21754;SDS011;11039;50.028;19.938;2023-07-13T06:38:20;5.93;;;5.07;;
21754;SDS011;11039;50.028;19.938;2023-07-13T06:40:46;8.60;;;5.68;;
21754;SDS011;11039;50.028;19.938;2023-07-13T06:43:12;7.97;;;5.88;;
21754;SDS011;11039;50.028;19.938;2023-07-13T06:45:45;7.55;;;5.85;;
21754;SDS011;11039;50.028;19.938;2023-07-13T06:48:12;8.38;;;5.68;;
21754;SDS011;11039;50.028;19.938;2023-07-13T06:50:38;9.10;;;5.40;;
21754;SDS011;11039;50.028;19.938;2023-07-13T06:53:05;7.43;;;5.63;;
21754;SDS011;11039;50.028;19.938;2023-07-13T06:55:31;6.43;;;4.90;;
21754;SDS011;11039;50.028;19.938;2023-07-13T06:57:57;8.70;;;5.05;;
21754;SDS011;11039;50.028;19.938;2023-07-13T07:00:23;7.25;;;4.97;;
21754;SDS011;11039;50.028;19.938;2023-07-13T07:02:49;8.95;;;5.57;;
21754;SDS011;11039;50.028;19.938;2023-07-13T07:05:15;8.63;;;4.97;;
21754;SDS011;11039;50.028;19.938;2023-07-13T07:07:41;5.47;;;4.55;;
21754;SDS011;11039;50.028;19.938;2023-07-13T07:10:07;6.05;;;4.55;;
21754;SDS011;11039;50.028;19.938;2023-07-13T07:12:33;8.10;;;5.50;;
21754;SDS011;11039;50.028;19.938;2023-07-13T07:14:59;6.38;;;5.07;;
21754;SDS011;11039;50.028;19.938;2023-07-13T07:17:25;7.55;;;5.40;;
21754;SDS011;11039;50.028;19.938;2023-07-13T07:19:52;9.30;;;4.97;;
21754;SDS011;11039;50.028;19.938;2023-07-13T07:22:19;8.45;;;4.93;;
21754;SDS011;11039;50.028;19.938;2023-07-13T07:24:45;7.35;;;5.05;;
21754;SDS011;11039;50.028;19.938;2023-07-13T07:27:11;5.35;;;4.50;;
21754;SDS011;11039;50.028;19.938;2023-07-13T07:29:37;5.10;;;4.32;;
21754;SDS011;11039;50.028;19.938;2023-07-13T07:32:03;6.55;;;4.60;;
21754;SDS011;11039;50.028;19.938;2023-07-13T07:34:30;6.85;;;4.38;;
21754;SDS011;11039;50.028;19.938;2023-07-13T07:36:58;9.15;;;5.13;;
21754;SDS011;11039;50.028;19.938;2023-07-13T07:39:25;7.32;;;4.93;;
21754;SDS011;11039;50.028;19.938;2023-07-13T07:41:51;8.40;;;5.43;;
21754;SDS011;11039;50.028;19.938;2023-07-13T07:44:17;9.10;;;5.50;;
21754;SDS011;11039;50.028;19.938;2023-07-13T07:46:43;8.88;;;5.50;;
21754;SDS011;11039;50.028;19.938;2023-07-13T07:51:28;7.65;;;5.35;;
21754;SDS011;11039;50.028;19.938;2023-07-13T07:56:12;5.53;;;5.03;;
21754;SDS011;11039;50.028;19.938;2023-07-13T07:58:41;5.80;;;4.97;;
21754;SDS011;11039;50.028;19.938;2023-07-13T08:01:07;9.45;;;5.05;;
21754;SDS011;11039;50.028;19.938;2023-07-13T08:03:33;6.90;;;4.80;;
21754;SDS011;11039;50.028;19.938;2023-07-13T08:05:59;8.45;;;5.00;;
21754;SDS011;11039;50.028;19.938;2023-07-13T08:08:25;6.80;;;4.40;;
21754;SDS011;11039;50.028;19.938;2023-07-13T08:10:52;8.63;;;4.90;;
21754;SDS011;11039;50.028;19.938;2023-07-13T08:13:18;8.30;;;5.10;;
21754;SDS011;11039;50.028;19.938;2023-07-13T08:15:44;5.68;;;4.60;;
21754;SDS011;11039;50.028;19.938;2023-07-13T08:18:10;5.00;;;4.47;;
21754;SDS011;11039;50.028;19.938;2023-07-13T08:20:37;5.00;;;4.43;;
21754;SDS011;11039;50.028;19.938;2023-07-13T08:23:03;5.28;;;4.65;;
21754;SDS011;11039;50.028;19.938;2023-07-13T08:25:29;6.60;;;4.68;;
21754;SDS011;11039;50.028;19.938;2023-07-13T08:27:55;7.57;;;4.50;;
21754;SDS011;11039;50.028;19.938;2023-07-13T08:30:21;5.72;;;4.05;;
21754;SDS011;11039;50.028;19.938;2023-07-13T08:32:48;6.70;;;4.65;;
21754;SDS011;11039;50.028;19.938;2023-07-13T08:35:14;11.50;;;4.40;;
21754;SDS011;11039;50.028;19.938;2023-07-13T08:37:41;7.03;;;4.05;;
21754;SDS011;11039;50.028;19.938;2023-07-13T08:40:10;5.93;;;4.20;;
21754;SDS011;11039;50.028;19.938;2023-07-13T08:42:42;5.75;;;5.00;;
21754;SDS011;11039;50.028;19.938;2023-07-13T08:45:21;10.65;;;7.57;;
21754;SDS011;11039;50.028;19.938;2023-07-13T08:47:50;19.08;;;13.05;;
21754;SDS011;11039;50.028;19.938;2023-07-13T08:50:19;26.20;;;19.08;;
21754;SDS011;11039;50.028;19.938;2023-07-13T08:52:46;31.42;;;25.88;;
21754;SDS011;11039;50.028;19.938;2023-07-13T08:57:38;32.63;;;26.15;;
21754;SDS011;11039;50.028;19.938;2023-07-13T09:00:10;27.58;;;24.23;;
21754;SDS011;11039;50.028;19.938;2023-07-13T09:02:48;21.85;;;16.50;;
21754;SDS011;11039;50.028;19.938;2023-07-13T09:05:25;18.58;;;13.48;;
21754;SDS011;11039;50.028;19.938;2023-07-13T09:08:08;15.90;;;12.05;;
21754;SDS011;11039;50.028;19.938;2023-07-13T09:10:43;18.67;;;13.00;;
21754;SDS011;11039;50.028;19.938;2023-07-13T09:13:31;14.00;;;10.65;;
21754;SDS011;11039;50.028;19.938;2023-07-13T09:16:00;14.13;;;9.63;;
21754;SDS011;11039;50.028;19.938;2023-07-13T09:18:30;11.32;;;9.05;;
21754;SDS011;11039;50.028;19.938;2023-07-13T09:20:59;12.45;;;10.48;;
21754;SDS011;11039;50.028;19.938;2023-07-13T09:23:28;13.20;;;8.98;;
21754;SDS011;11039;50.028;19.938;2023-07-13T09:31:13;10.38;;;7.63;;
21754;SDS011;11039;50.028;19.938;2023-07-13T09:35:57;10.50;;;7.70;;
21754;SDS011;11039;50.028;19.938;2023-07-13T09:38:28;8.27;;;7.05;;
21754;SDS011;11039;50.028;19.938;2023-07-13T09:41:13;10.52;;;7.28;;
21754;SDS011;11039;50.028;19.938;2023-07-13T09:46:26;8.05;;;6.65;;
21754;SDS011;11039;50.028;19.938;2023-07-13T09:48:52;9.43;;;6.68;;
21754;SDS011;11039;50.028;19.938;2023-07-13T09:51:18;9.27;;;7.53;;
21754;SDS011;11039;50.028;19.938;2023-07-13T09:53:44;11.10;;;6.57;;
21754;SDS011;11039;50.028;19.938;2023-07-13T09:56:23;8.57;;;5.95;;
21754;SDS011;11039;50.028;19.938;2023-07-13T09:58:49;7.15;;;5.85;;
21754;SDS011;11039;50.028;19.938;2023-07-13T10:01:15;6.10;;;5.45;;
21754;SDS011;11039;50.028;19.938;2023-07-13T10:03:52;6.20;;;5.45;;
21754;SDS011;11039;50.028;19.938;2023-07-13T10:06:19;7.43;;;5.18;;
21754;SDS011;11039;50.028;19.938;2023-07-13T10:08:47;7.13;;;5.28;;
21754;SDS011;11039;50.028;19.938;2023-07-13T10:13:44;7.78;;;5.50;;
21754;SDS011;11039;50.028;19.938;2023-07-13T10:16:11;7.80;;;5.03;;
21754;SDS011;11039;50.028;19.938;2023-07-13T10:18:49;9.73;;;5.55;;
21754;SDS011;11039;50.028;19.938;2023-07-13T10:21:19;8.23;;;5.75;;
21754;SDS011;11039;50.028;19.938;2023-07-13T10:23:54;5.78;;;5.18;;
21754;SDS011;11039;50.028;19.938;2023-07-13T10:26:25;6.07;;;4.93;;
21754;SDS011;11039;50.028;19.938;2023-07-13T10:28:53;9.18;;;5.72;;
21754;SDS011;11039;50.028;19.938;2023-07-13T10:31:20;8.25;;;5.28;;
21754;SDS011;11039;50.028;19.938;2023-07-13T10:33:46;7.32;;;5.68;;
21754;SDS011;11039;50.028;19.938;2023-07-13T10:38:34;7.72;;;5.07;;
21754;SDS011;11039;50.028;19.938;2023-07-13T10:43:20;9.43;;;5.15;;
21754;SDS011;11039;50.028;19.938;2023-07-13T10:45:47;8.35;;;4.88;;
21754;SDS011;11039;50.028;19.938;2023-07-13T10:48:15;9.68;;;5.72;;
21754;SDS011;11039;50.028;19.938;2023-07-13T10:50:42;7.90;;;5.15;;
21754;SDS011;11039;50.028;19.938;2023-07-13T10:53:22;8.35;;;5.30;;
21754;SDS011;11039;50.028;19.938;2023-07-13T11:03:20;8.90;;;5.65;;
21754;SDS011;11039;50.028;19.938;2023-07-13T11:05:48;9.35;;;6.07;;
21754;SDS011;11039;50.028;19.938;2023-07-13T11:13:00;8.38;;;6.40;;
21754;SDS011;11039;50.028;19.938;2023-07-13T11:15:27;10.35;;;6.78;;
21754;SDS011;11039;50.028;19.938;2023-07-13T11:17:55;8.32;;;6.80;;
21754;SDS011;11039;50.028;19.938;2023-07-13T11:22:47;10.50;;;7.80;;
21754;SDS011;11039;50.028;19.938;2023-07-13T11:25:21;13.10;;;8.60;;
21754;SDS011;11039;50.028;19.938;2023-07-13T11:33:02;12.38;;;8.93;;
21754;SDS011;11039;50.028;19.938;2023-07-13T11:35:33;10.20;;;8.50;;
21754;SDS011;11039;50.028;19.938;2023-07-13T11:38:01;11.85;;;8.13;;
21754;SDS011;11039;50.028;19.938;2023-07-13T11:40:27;9.48;;;6.63;;
21754;SDS011;11039;50.028;19.938;2023-07-13T11:43:01;9.10;;;6.05;;
21754;SDS011;11039;50.028;19.938;2023-07-13T11:45:27;9.32;;;5.32;;
21754;SDS011;11039;50.028;19.938;2023-07-13T11:47:54;7.28;;;4.63;;
21754;SDS011;11039;50.028;19.938;2023-07-13T11:50:25;5.80;;;4.43;;
21754;SDS011;11039;50.028;19.938;2023-07-13T11:52:52;6.80;;;4.82;;
21754;SDS011;11039;50.028;19.938;2023-07-13T11:55:21;5.85;;;4.55;;
21754;SDS011;11039;50.028;19.938;2023-07-13T11:57:50;4.93;;;3.78;;
21754;SDS011;11039;50.028;19.938;2023-07-13T12:00:18;7.47;;;4.60;;
21754;SDS011;11039;50.028;19.938;2023-07-13T12:02:46;6.25;;;4.25;;
21754;SDS011;11039;50.028;19.938;2023-07-13T12:05:14;7.28;;;3.53;;
21754;SDS011;11039;50.028;19.938;2023-07-13T12:07:42;4.03;;;3.03;;
21754;SDS011;11039;50.028;19.938;2023-07-13T12:12:34;6.00;;;2.83;;
21754;SDS011;11039;50.028;19.938;2023-07-13T12:15:08;4.30;;;2.70;;
21754;SDS011;11039;50.028;19.938;2023-07-13T12:17:34;5.88;;;2.65;;
21754;SDS011;11039;50.028;19.938;2023-07-13T12:20:03;3.47;;;2.80;;
21754;SDS011;11039;50.028;19.938;2023-07-13T12:22:33;6.03;;;3.03;;
21754;SDS011;11039;50.028;19.938;2023-07-13T12:25:00;5.05;;;2.78;;
21754;SDS011;11039;50.028;19.938;2023-07-13T12:29:50;4.20;;;2.30;;
21754;SDS011;11039;50.028;19.938;2023-07-13T12:32:18;4.55;;;2.55;;
21754;SDS011;11039;50.028;19.938;2023-07-13T12:34:54;4.05;;;2.70;;
21754;SDS011;11039;50.028;19.938;2023-07-13T12:37:21;5.03;;;2.38;;
21754;SDS011;11039;50.028;19.938;2023-07-13T12:39:47;4.03;;;2.67;;
21754;SDS011;11039;50.028;19.938;2023-07-13T12:44:43;3.60;;;2.72;;
21754;SDS011;11039;50.028;19.938;2023-07-13T12:47:11;4.07;;;2.58;;
21754;SDS011;11039;50.028;19.938;2023-07-13T12:49:41;3.85;;;2.47;;
21754;SDS011;11039;50.028;19.938;2023-07-13T12:52:14;2.58;;;2.38;;
21754;SDS011;11039;50.028;19.938;2023-07-13T12:54:40;4.72;;;2.30;;
21754;SDS011;11039;50.028;19.938;2023-07-13T12:57:08;2.95;;;2.13;;
21754;SDS011;11039;50.028;19.938;2023-07-13T12:59:39;4.10;;;2.28;;
21754;SDS011;11039;50.028;19.938;2023-07-13T13:05:05;4.32;;;2.45;;
21754;SDS011;11039;50.028;19.938;2023-07-13T13:07:31;4.72;;;2.58;;
21754;SDS011;11039;50.028;19.938;2023-07-13T13:09:57;3.33;;;2.38;;
21754;SDS011;11039;50.028;19.938;2023-07-13T13:12:23;2.80;;;2.13;;
21754;SDS011;11039;50.028;19.938;2023-07-13T13:14:51;3.22;;;2.15;;
21754;SDS011;11039;50.028;19.938;2023-07-13T13:17:22;3.47;;;2.40;;
21754;SDS011;11039;50.028;19.938;2023-07-13T13:19:50;2.38;;;2.08;;
21754;SDS011;11039;50.028;19.938;2023-07-13T13:22:19;5.25;;;2.45;;
21754;SDS011;11039;50.028;19.938;2023-07-13T13:27:04;4.47;;;1.90;;
21754;SDS011;11039;50.028;19.938;2023-07-13T13:29:31;3.22;;;2.20;;
21754;SDS011;11039;50.028;19.938;2023-07-13T13:31:58;3.15;;;2.15;;
21754;SDS011;11039;50.028;19.938;2023-07-13T13:36:43;4.07;;;2.28;;
21754;SDS011;11039;50.028;19.938;2023-07-13T13:41:27;3.58;;;2.63;;
21754;SDS011;11039;50.028;19.938;2023-07-13T13:43:53;2.85;;;2.10;;
21754;SDS011;11039;50.028;19.938;2023-07-13T13:46:23;2.78;;;2.30;;
21754;SDS011;11039;50.028;19.938;2023-07-13T13:48:50;4.53;;;2.47;;
21754;SDS011;11039;50.028;19.938;2023-07-13T13:51:20;6.35;;;2.88;;
21754;SDS011;11039;50.028;19.938;2023-07-13T13:53:47;4.03;;;2.10;;
21754;SDS011;11039;50.028;19.938;2023-07-13T13:56:17;3.25;;;2.45;;
21754;SDS011;11039;50.028;19.938;2023-07-13T13:58:43;3.78;;;2.40;;
21754;SDS011;11039;50.028;19.938;2023-07-13T14:01:11;4.38;;;2.78;;
21754;SDS011;11039;50.028;19.938;2023-07-13T14:05:58;6.13;;;2.30;;
21754;SDS011;11039;50.028;19.938;2023-07-13T14:08:25;3.13;;;2.72;;
21754;SDS011;11039;50.028;19.938;2023-07-13T14:10:52;4.15;;;2.83;;
21754;SDS011;11039;50.028;19.938;2023-07-13T14:13:23;4.22;;;2.70;;
21754;SDS011;11039;50.028;19.938;2023-07-13T14:15:51;6.13;;;3.28;;
21754;SDS011;11039;50.028;19.938;2023-07-13T14:20:35;3.20;;;2.70;;
21754;SDS011;11039;50.028;19.938;2023-07-13T14:23:01;3.42;;;2.90;;
21754;SDS011;11039;50.028;19.938;2023-07-13T14:25:27;3.47;;;2.50;;
21754;SDS011;11039;50.028;19.938;2023-07-13T14:27:55;3.38;;;2.53;;
21754;SDS011;11039;50.028;19.938;2023-07-13T14:30:24;3.22;;;2.60;;
21754;SDS011;11039;50.028;19.938;2023-07-13T14:35:13;2.47;;;2.28;;
21754;SDS011;11039;50.028;19.938;2023-07-13T14:39:59;3.40;;;2.60;;
21754;SDS011;11039;50.028;19.938;2023-07-13T14:42:25;4.57;;;3.15;;
21754;SDS011;11039;50.028;19.938;2023-07-13T14:44:51;3.28;;;2.22;;
21754;SDS011;11039;50.028;19.938;2023-07-13T14:47:17;4.47;;;2.35;;
21754;SDS011;11039;50.028;19.938;2023-07-13T14:49:44;3.30;;;2.90;;
21754;SDS011;11039;50.028;19.938;2023-07-13T14:52:14;4.50;;;2.80;;
21754;SDS011;11039;50.028;19.938;2023-07-13T14:54:41;4.75;;;2.83;;
21754;SDS011;11039;50.028;19.938;2023-07-13T14:57:09;3.83;;;2.83;;
21754;SDS011;11039;50.028;19.938;2023-07-13T14:59:35;3.78;;;2.70;;
21754;SDS011;11039;50.028;19.938;2023-07-13T15:02:02;3.58;;;2.97;;
21754;SDS011;11039;50.028;19.938;2023-07-13T15:04:29;4.53;;;2.97;;
21754;SDS011;11039;50.028;19.938;2023-07-13T15:06:56;4.07;;;2.72;;
21754;SDS011;11039;50.028;19.938;2023-07-13T15:09:24;4.18;;;2.88;;
21754;SDS011;11039;50.028;19.938;2023-07-13T15:11:51;4.38;;;2.95;;
21754;SDS011;11039;50.028;19.938;2023-07-13T15:14:17;4.97;;;2.70;;
21754;SDS011;11039;50.028;19.938;2023-07-13T15:16:44;5.40;;;3.13;;
21754;SDS011;11039;50.028;19.938;2023-07-13T15:19:10;3.25;;;2.60;;
21754;SDS011;11039;50.028;19.938;2023-07-13T15:21:36;3.30;;;2.85;;
21754;SDS011;11039;50.028;19.938;2023-07-13T15:24:03;3.85;;;2.70;;
21754;SDS011;11039;50.028;19.938;2023-07-13T15:26:33;4.05;;;3.38;;
21754;SDS011;11039;50.028;19.938;2023-07-13T15:29:00;3.78;;;3.13;;
21754;SDS011;11039;50.028;19.938;2023-07-13T15:31:26;4.43;;;3.03;;
21754;SDS011;11039;50.028;19.938;2023-07-13T15:33:55;4.80;;;3.15;;
21754;SDS011;11039;50.028;19.938;2023-07-13T15:36:22;3.05;;;2.75;;
21754;SDS011;11039;50.028;19.938;2023-07-13T15:38:51;3.22;;;2.60;;
21754;SDS011;11039;50.028;19.938;2023-07-13T15:41:27;4.10;;;3.20;;
21754;SDS011;11039;50.028;19.938;2023-07-13T15:43:54;3.38;;;3.08;;
21754;SDS011;11039;50.028;19.938;2023-07-13T15:46:23;3.88;;;2.92;;
21754;SDS011;11039;50.028;19.938;2023-07-13T15:48:49;4.15;;;3.45;;
21754;SDS011;11039;50.028;19.938;2023-07-13T15:51:25;5.05;;;4.00;;
21754;SDS011;11039;50.028;19.938;2023-07-13T15:53:53;6.07;;;4.07;;
21754;SDS011;11039;50.028;19.938;2023-07-13T15:56:21;6.35;;;4.10;;
21754;SDS011;11039;50.028;19.938;2023-07-13T15:58:48;4.68;;;4.15;;
21754;SDS011;11039;50.028;19.938;2023-07-13T16:01:15;7.53;;;4.15;;
21754;SDS011;11039;50.028;19.938;2023-07-13T16:03:41;4.30;;;3.90;;